Time;durP1;ratioP1;P1;durP2;ratioP2;P2;SDS_P1;SDS_P2;PMS_P1;PMS_P2;Temp;Humidity;BMP_temperature;BMP_pressure;BME280_temperature;BME280_humidity;BME280_pressure;Samples;Min_cycle;Max_cycle;Signal;HPM_P1;HPM_P2
2023/12/01 00:01:19;;;;;;;21.85;9.32;;;3.20;82.30;;;;;;5050199;28;20407;-61
2023/12/01 00:03:45;;;;;;;24.88;10.18;;;3.20;82.40;;;;;;5053808;28;20032;-60
2023/12/01 00:06:11;;;;;;;20.52;10.60;;;3.20;82.40;;;;;;5051877;28;20049;-61
2023/12/01 00:08:36;;;;;;;20.77;9.90;;;3.20;82.30;;;;;;5053857;28;20453;-61
2023/12/01 00:11:02;;;;;;;22.45;8.98;;;3.20;82.30;;;;;;5048320;28;20483;-60
2023/12/01 00:13:28;;;;;;;21.45;10.77;;;3.20;82.30;;;;;;5054228;28;20123;-60
2023/12/01 00:15:54;;;;;;;23.13;9.88;;;3.20;82.40;;;;;;5050149;28;20113;-60
2023/12/01 00:21:42;;;;;;;21.08;12.50;;;3.20;82.20;;;;;;5051114;28;20156;-60
2023/12/01 00:24:08;;;;;;;19.73;10.50;;;3.20;82.50;;;;;;5055572;28;20498;-61
2023/12/01 00:26:33;;;;;;;20.58;10.40;;;3.30;83.10;;;;;;5056797;28;20762;-61
2023/12/01 00:28:59;;;;;;;22.15;10.40;;;3.30;82.40;;;;;;5051583;28;20033;-60
2023/12/01 00:31:25;;;;;;;23.67;11.38;;;3.30;82.40;;;;;;5050915;28;20037;-61
2023/12/01 00:33:51;;;;;;;23.08;11.75;;;3.30;82.40;;;;;;5052923;28;20109;-61
2023/12/01 00:36:17;;;;;;;23.38;11.68;;;3.30;82.20;;;;;;5056349;28;20145;-60
2023/12/01 00:38:43;;;;;;;24.35;10.80;;;3.30;82.30;;;;;;5053645;28;20459;-60
2023/12/01 00:41:08;;;;;;;33.92;12.57;;;3.30;82.30;;;;;;5051686;28;20041;-60
2023/12/01 00:43:35;;;;;;;28.73;13.45;;;3.30;82.20;;;;;;5052695;28;20067;-60
2023/12/01 00:46:01;;;;;;;25.50;11.13;;;3.20;82.20;;;;;;5055913;28;20534;-60
2023/12/01 00:48:27;;;;;;;25.27;12.57;;;3.20;82.20;;;;;;5060626;28;20037;-60
2023/12/01 00:50:53;;;;;;;24.80;13.43;;;3.30;82.30;;;;;;5061430;28;20032;-61
2023/12/01 00:53:18;;;;;;;23.23;13.45;;;3.20;82.20;;;;;;5064345;28;20025;-61
2023/12/01 00:55:44;;;;;;;28.73;12.75;;;3.20;82.20;;;;;;5053036;28;20104;-61
2023/12/01 00:58:10;;;;;;;24.92;12.75;;;3.20;82.30;;;;;;5056313;28;20025;-61
2023/12/01 01:20:54;;;;;;;29.70;12.95;;;3.10;82.30;;;;;;5032639;28;20040;-61
2023/12/01 01:23:20;;;;;;;25.58;11.50;;;3.10;82.40;;;;;;5055764;28;20051;-60
2023/12/01 01:25:46;;;;;;;24.70;11.02;;;3.10;82.40;;;;;;5056975;28;20021;-60
2023/12/01 01:28:11;;;;;;;33.70;14.93;;;3.10;82.30;;;;;;5053533;28;20025;-60
2023/12/01 01:30:37;;;;;;;41.60;13.98;;;3.10;82.40;;;;;;5038572;28;20071;-60
2023/12/01 01:33:03;;;;;;;34.08;15.00;;;3.10;82.30;;;;;;5051209;28;20036;-60
2023/12/01 01:35:31;;;;;;;35.50;13.30;;;3.10;82.20;;;;;;5053859;28;20028;-60
2023/12/01 01:37:57;;;;;;;42.08;16.70;;;3.10;82.30;;;;;;5052829;28;20040;-60
2023/12/01 01:40:23;;;;;;;31.90;14.90;;;3.10;82.30;;;;;;5060433;28;20028;-60
2023/12/01 01:42:49;;;;;;;30.42;12.82;;;3.10;82.20;;;;;;5055924;28;20029;-60
2023/12/01 01:45:15;;;;;;;30.08;14.38;;;3.10;82.20;;;;;;5052348;28;20101;-60
2023/12/01 01:47:41;;;;;;;21.60;11.73;;;3.10;82.20;;;;;;5056192;28;20467;-60
2023/12/01 01:50:07;;;;;;;27.65;14.77;;;3.20;82.10;;;;;;5053970;28;20484;-60
2023/12/01 01:52:35;;;;;;;23.83;14.73;;;3.20;82.10;;;;;;5061935;28;20102;-61
2023/12/01 01:55:02;;;;;;;19.27;12.25;;;3.20;82.20;;;;;;5047488;28;20025;-60
2023/12/01 01:57:31;;;;;;;30.30;13.82;;;3.20;82.20;;;;;;5065311;28;20297;-60
2023/12/01 01:59:56;;;;;;;30.23;15.05;;;3.20;82.20;;;;;;5060320;28;20024;-60
2023/12/01 02:02:22;;;;;;;32.63;15.68;;;3.20;82.20;;;;;;5043568;28;20495;-60
2023/12/01 02:04:48;;;;;;;32.08;15.43;;;3.20;82.20;;;;;;5055756;28;20033;-60
2023/12/01 02:07:25;;;;;;;33.00;14.57;;;3.20;82.30;;;;;;5059139;28;20036;-60
2023/12/01 02:09:50;;;;;;;30.10;16.70;;;3.30;82.30;;;;;;5060929;28;20025;-60
2023/12/01 02:12:16;;;;;;;29.80;15.57;;;3.20;82.30;;;;;;5062778;28;20364;-60
2023/12/01 02:14:42;;;;;;;35.05;15.40;;;3.30;82.30;;;;;;5056465;28;20033;-60
2023/12/01 02:17:08;;;;;;;33.08;13.73;;;3.30;82.30;;;;;;5063167;28;20399;-61
2023/12/01 02:19:33;;;;;;;30.95;14.77;;;3.30;82.20;;;;;;5056317;28;20501;-60
2023/12/01 02:21:59;;;;;;;26.23;13.57;;;3.30;82.30;;;;;;5059378;28;20590;-61
2023/12/01 02:24:25;;;;;;;28.02;15.00;;;3.30;82.30;;;;;;5049812;28;20470;-61
2023/12/01 02:26:50;;;;;;;33.67;14.77;;;3.40;82.30;;;;;;5059231;28;20352;-60
2023/12/01 02:29:16;;;;;;;31.98;14.85;;;3.40;82.30;;;;;;5060168;28;20391;-60
2023/12/01 02:31:42;;;;;;;24.65;11.77;;;3.40;82.30;;;;;;5055880;28;20052;-60
2023/12/01 02:34:07;;;;;;;29.77;12.48;;;3.40;82.30;;;;;;5054958;28;20506;-61
2023/12/01 02:36:33;;;;;;;28.17;14.55;;;3.40;82.20;;;;;;5059962;28;20399;-60
2023/12/01 02:38:59;;;;;;;32.15;14.15;;;3.40;82.20;;;;;;5054800;28;20457;-60
2023/12/01 02:41:25;;;;;;;31.55;14.27;;;3.40;82.20;;;;;;5058315;28;20044;-60
2023/12/01 02:43:51;;;;;;;26.98;13.68;;;3.40;82.10;;;;;;5060646;28;20032;-59
2023/12/01 02:46:22;;;;;;;23.40;11.68;;;3.40;82.10;;;;;;5052520;28;20362;-59
2023/12/01 02:48:48;;;;;;;31.83;13.95;;;3.50;82.20;;;;;;5046598;28;20496;-59
2023/12/01 02:51:14;;;;;;;20.23;11.52;;;3.40;82.10;;;;;;5058117;28;20236;-59
2023/12/01 02:53:40;;;;;;;28.40;12.52;;;3.50;82.10;;;;;;5072853;28;20052;-59
2023/12/01 02:56:06;;;;;;;25.92;12.63;;;3.50;82.20;;;;;;5052691;28;20109;-59
2023/12/01 02:58:32;;;;;;;25.08;11.75;;;3.50;82.20;;;;;;5052925;28;20037;-59
2023/12/01 03:00:57;;;;;;;22.30;10.52;;;3.50;82.20;;;;;;5058275;28;20359;-59
2023/12/01 03:03:23;;;;;;;21.73;10.50;;;3.60;82.10;;;;;;5048262;28;20028;-59
2023/12/01 03:05:49;;;;;;;24.25;12.82;;;3.60;82.00;;;;;;5050836;28;20356;-59
2023/12/01 03:08:14;;;;;;;24.23;11.23;;;3.60;81.90;;;;;;5057968;28;20039;-59
2023/12/01 03:10:40;;;;;;;25.80;12.82;;;3.60;82.00;;;;;;5058535;28;20545;-59
2023/12/01 03:13:06;;;;;;;23.42;11.80;;;3.60;82.00;;;;;;5063386;28;20040;-59
2023/12/01 03:15:31;;;;;;;21.98;11.45;;;3.70;82.00;;;;;;5049576;28;20040;-59
2023/12/01 03:17:58;;;;;;;31.02;11.90;;;3.70;81.90;;;;;;5050195;28;20032;-59
2023/12/01 03:20:27;;;;;;;27.17;11.32;;;3.70;81.90;;;;;;5054664;28;20590;-59
2023/12/01 03:22:54;;;;;;;20.17;11.23;;;3.60;81.90;;;;;;5053968;28;20045;-59
2023/12/01 03:25:19;;;;;;;23.10;10.93;;;3.70;82.00;;;;;;5056754;28;20507;-59
2023/12/01 03:27:47;;;;;;;25.73;12.43;;;3.70;82.00;;;;;;5059361;28;20025;-59
2023/12/01 03:30:15;;;;;;;27.45;13.15;;;3.70;82.00;;;;;;5054007;28;20028;-59
2023/12/01 03:32:46;;;;;;;23.27;11.73;;;3.70;82.00;;;;;;5058568;28;20111;-59
2023/12/01 03:35:17;;;;;;;22.95;11.57;;;3.70;82.10;;;;;;5062591;28;20078;-60
2023/12/01 03:37:44;;;;;;;20.45;10.98;;;3.70;82.10;;;;;;5059003;28;20059;-60
2023/12/01 03:40:12;;;;;;;27.35;12.23;;;3.60;82.10;;;;;;5061015;28;20078;-60
2023/12/01 03:42:45;;;;;;;21.65;12.20;;;3.70;82.20;;;;;;5052899;28;20123;-60
2023/12/01 03:45:12;;;;;;;20.33;11.93;;;3.70;82.20;;;;;;5055122;28;20044;-60
2023/12/01 03:47:42;;;;;;;22.20;10.85;;;3.70;82.10;;;;;;5053541;28;20031;-60
2023/12/01 03:50:11;;;;;;;17.17;9.23;;;3.70;82.10;;;;;;5052028;28;20086;-60
2023/12/01 03:52:45;;;;;;;24.13;10.85;;;3.70;82.10;;;;;;5049421;28;20136;-60
2023/12/01 03:55:12;;;;;;;26.77;11.77;;;3.70;82.10;;;;;;5058858;28;20056;-60
2023/12/01 03:57:40;;;;;;;26.67;12.20;;;3.70;82.10;;;;;;5053321;28;20081;-60
2023/12/01 04:00:13;;;;;;;17.85;10.15;;;3.70;82.10;;;;;;5058950;28;20036;-60
2023/12/01 04:02:44;;;;;;;22.85;11.73;;;3.70;82.00;;;;;;5054933;28;20099;-60
2023/12/01 04:05:18;;;;;;;24.30;10.77;;;3.80;82.10;;;;;;5037105;28;20085;-60
2023/12/01 04:07:50;;;;;;;19.13;10.77;;;3.70;82.10;;;;;;5052549;28;20553;-60
2023/12/01 04:10:16;;;;;;;20.92;11.45;;;3.70;82.10;;;;;;5047443;28;20025;-59
2023/12/01 04:12:46;;;;;;;22.60;11.27;;;3.70;82.10;;;;;;5073518;28;20786;-59
2023/12/01 04:15:16;;;;;;;23.35;11.45;;;3.70;82.20;;;;;;5060433;28;20029;-61
2023/12/01 04:17:46;;;;;;;26.63;12.00;;;3.80;82.20;;;;;;5042328;28;20038;-60
2023/12/01 04:20:25;;;;;;;24.30;11.02;;;3.80;82.10;;;;;;5045912;28;20035;-59
2023/12/01 04:23:00;;;;;;;19.38;9.63;;;3.80;82.10;;;;;;5040955;28;20040;-59
2023/12/01 04:25:28;;;;;;;30.92;11.98;;;3.80;82.10;;;;;;5061144;28;20177;-59
2023/12/01 04:27:58;;;;;;;22.98;10.05;;;3.80;82.20;;;;;;5051111;28;20024;-59
2023/12/01 04:30:24;;;;;;;27.08;12.20;;;3.70;82.10;;;;;;5056250;28;20032;-59
2023/12/01 04:32:54;;;;;;;18.48;11.02;;;3.80;82.20;;;;;;5052205;28;20488;-60
2023/12/01 04:35:21;;;;;;;22.85;11.50;;;3.70;82.10;;;;;;5060752;28;20142;-61
2023/12/01 04:37:47;;;;;;;24.85;11.52;;;3.70;82.20;;;;;;5048006;28;20036;-60
2023/12/01 04:40:16;;;;;;;23.50;10.82;;;3.70;82.20;;;;;;5051445;28;20029;-60
2023/12/01 04:42:46;;;;;;;20.45;12.57;;;3.70;82.20;;;;;;5047783;28;20395;-60
2023/12/01 04:45:13;;;;;;;22.38;12.05;;;3.80;82.20;;;;;;5058986;28;20029;-60
2023/12/01 04:47:40;;;;;;;30.30;12.65;;;3.80;82.20;;;;;;5050850;28;20388;-60
2023/12/01 04:50:12;;;;;;;19.25;10.68;;;3.70;82.10;;;;;;5051132;28;20032;-60
2023/12/01 04:52:43;;;;;;;25.48;11.65;;;3.70;82.20;;;;;;5053903;28;20082;-61
2023/12/01 04:55:12;;;;;;;21.70;11.45;;;3.70;82.30;;;;;;5048294;28;20036;-60
2023/12/01 04:57:42;;;;;;;22.70;10.55;;;3.70;82.20;;;;;;5060333;28;20040;-61
2023/12/01 05:00:20;;;;;;;23.15;12.88;;;3.80;82.20;;;;;;5051193;28;20028;-60
2023/12/01 05:02:54;;;;;;;25.48;11.77;;;3.70;82.20;;;;;;5051969;28;20385;-60
2023/12/01 05:05:25;;;;;;;24.23;13.05;;;3.70;82.30;;;;;;5050379;28;20056;-60
2023/12/01 05:07:52;;;;;;;22.48;12.32;;;3.70;82.30;;;;;;5054101;28;20068;-60
2023/12/01 05:10:22;;;;;;;24.90;12.80;;;3.70;82.30;;;;;;5055382;28;20032;-59
2023/12/01 05:12:50;;;;;;;27.90;14.45;;;3.70;82.30;;;;;;5039124;28;20029;-60
2023/12/01 05:15:18;;;;;;;25.90;14.45;;;3.70;82.40;;;;;;5060145;28;20031;-60
2023/12/01 05:17:55;;;;;;;29.98;12.82;;;3.70;82.20;;;;;;5047698;28;20391;-60
2023/12/01 05:20:23;;;;;;;30.55;13.27;;;3.80;82.30;;;;;;5036850;28;20136;-60
2023/12/01 05:22:53;;;;;;;23.42;12.23;;;3.80;82.30;;;;;;5051695;28;20523;-60
2023/12/01 05:25:20;;;;;;;31.10;12.45;;;3.70;82.30;;;;;;5057783;28;20021;-60
2023/12/01 05:27:50;;;;;;;30.38;12.98;;;3.70;82.30;;;;;;5053197;28;20028;-60
2023/12/01 05:30:19;;;;;;;20.50;13.38;;;3.80;82.30;;;;;;5056340;28;20035;-60
2023/12/01 05:32:54;;;;;;;27.23;13.02;;;3.80;82.30;;;;;;5047827;28;20712;-62
2023/12/01 05:35:21;;;;;;;23.90;12.43;;;3.80;82.20;;;;;;5052978;28;20037;-60
2023/12/01 05:37:51;;;;;;;22.52;12.60;;;3.80;82.20;;;;;;5055069;28;20041;-60
2023/12/01 05:40:20;;;;;;;21.90;12.57;;;3.80;82.20;;;;;;5058123;28;20074;-61
2023/12/01 05:42:47;;;;;;;21.65;12.57;;;3.80;82.10;;;;;;5050856;28;20025;-61
2023/12/01 05:45:14;;;;;;;22.20;12.77;;;3.80;82.20;;;;;;5055554;28;20033;-61
2023/12/01 05:47:47;;;;;;;28.30;12.98;;;3.80;82.20;;;;;;5051716;28;20086;-61
2023/12/01 05:50:33;;;;;;;29.58;13.30;;;3.80;82.20;;;;;;5057468;28;20032;-61
2023/12/01 05:53:01;;;;;;;21.15;11.30;;;3.80;82.20;;;;;;5050147;28;20036;-60
2023/12/01 05:55:29;;;;;;;19.45;11.85;;;3.70;82.40;;;;;;5053751;28;20456;-61
2023/12/01 05:58:01;;;;;;;18.58;11.07;;;3.60;82.40;;;;;;5056991;28;20048;-60
2023/12/01 06:00:29;;;;;;;17.50;8.77;;;3.70;82.50;;;;;;5055490;28;20435;-60
2023/12/01 06:03:02;;;;;;;16.83;9.57;;;3.70;82.40;;;;;;5039869;28;20456;-60
2023/12/01 06:05:28;;;;;;;14.95;7.90;;;3.60;82.30;;;;;;5049277;28;20029;-60
2023/12/01 06:07:58;;;;;;;18.77;7.50;;;3.60;82.10;;;;;;5064410;28;20029;-61
2023/12/01 06:10:26;;;;;;;20.17;7.57;;;3.60;82.10;;;;;;5060854;28;20048;-61
2023/12/01 06:12:52;;;;;;;12.40;6.60;;;3.60;82.00;;;;;;5061548;28;20541;-60
2023/12/01 06:15:19;;;;;;;19.48;8.00;;;3.60;81.90;;;;;;5058760;28;20028;-60
2023/12/01 06:17:47;;;;;;;22.88;7.63;;;3.70;81.80;;;;;;5059142;28;20052;-60
2023/12/01 06:20:18;;;;;;;15.73;6.93;;;3.60;81.80;;;;;;5059702;28;20020;-60
2023/12/01 06:22:47;;;;;;;14.55;6.55;;;3.70;81.50;;;;;;5063883;28;20041;-60
2023/12/01 06:25:14;;;;;;;10.52;7.32;;;3.60;81.40;;;;;;5053173;28;20029;-60
2023/12/01 06:27:40;;;;;;;12.82;5.80;;;3.70;81.40;;;;;;5056842;28;20036;-60
2023/12/01 06:30:11;;;;;;;13.30;6.65;;;3.70;81.60;;;;;;5060918;28;20471;-60
2023/12/01 06:32:46;;;;;;;20.98;6.10;;;3.60;81.30;;;;;;5054293;28;20029;-60
2023/12/01 06:35:14;;;;;;;13.93;7.18;;;3.70;81.10;;;;;;5059958;28;20039;-60
2023/12/01 06:37:41;;;;;;;13.50;6.35;;;3.60;81.10;;;;;;5058773;28;20074;-60
2023/12/01 06:40:15;;;;;;;11.88;6.57;;;3.60;81.10;;;;;;5036114;28;20120;-60
2023/12/01 06:42:42;;;;;;;10.25;6.30;;;3.60;81.00;;;;;;5053698;28;20065;-60
2023/12/01 06:45:12;;;;;;;17.33;6.10;;;3.60;80.80;;;;;;5055480;28;20012;-60
2023/12/01 06:47:40;;;;;;;12.00;6.57;;;3.60;80.80;;;;;;5052357;28;20085;-60
2023/12/01 06:50:06;;;;;;;11.00;6.07;;;3.60;80.80;;;;;;5055785;28;20029;-61
2023/12/01 06:52:33;;;;;;;14.30;7.90;;;3.60;80.80;;;;;;5063901;28;20937;-61
2023/12/01 06:54:59;;;;;;;11.82;6.43;;;3.60;80.70;;;;;;5051538;28;20048;-61
2023/12/01 06:57:24;;;;;;;14.82;7.25;;;3.60;80.70;;;;;;5061252;28;20040;-61
2023/12/01 06:59:52;;;;;;;15.43;8.18;;;3.60;80.70;;;;;;5056840;28;20048;-61
2023/12/01 07:02:19;;;;;;;11.57;6.95;;;3.60;80.80;;;;;;5055362;28;20063;-60
2023/12/01 07:04:44;;;;;;;14.85;7.38;;;3.60;80.80;;;;;;5060230;28;20016;-60
2023/12/01 07:07:12;;;;;;;15.13;8.02;;;3.60;80.70;;;;;;5059398;28;20055;-60
2023/12/01 07:09:44;;;;;;;9.38;6.40;;;3.60;80.70;;;;;;5052283;28;20013;-60
2023/12/01 07:12:10;;;;;;;14.32;5.57;;;3.60;80.70;;;;;;5051281;28;20058;-60
2023/12/01 07:14:36;;;;;;;17.00;8.15;;;3.60;80.70;;;;;;5054262;28;20033;-61
2023/12/01 07:17:05;;;;;;;11.18;6.55;;;3.60;80.80;;;;;;5062476;28;20115;-61
2023/12/01 07:19:34;;;;;;;10.60;5.93;;;3.50;80.70;;;;;;5057336;28;20039;-60
2023/12/01 07:22:00;;;;;;;10.88;6.32;;;3.50;80.60;;;;;;5058778;28;20052;-61
2023/12/01 07:24:26;;;;;;;13.52;7.78;;;3.40;80.60;;;;;;5052817;28;20017;-61
2023/12/01 07:26:52;;;;;;;10.13;6.45;;;3.40;80.70;;;;;;5053098;28;20040;-60
2023/12/01 07:29:18;;;;;;;8.93;4.88;;;3.40;80.60;;;;;;5056340;28;20028;-61
2023/12/01 07:31:44;;;;;;;11.05;5.88;;;3.40;80.60;;;;;;5049869;28;20029;-61
2023/12/01 07:34:11;;;;;;;9.38;4.82;;;3.30;80.50;;;;;;5051701;28;20029;-60
2023/12/01 07:36:37;;;;;;;13.02;5.85;;;3.30;80.40;;;;;;5051453;28;20033;-61
2023/12/01 07:39:04;;;;;;;13.85;6.57;;;3.30;80.30;;;;;;5054344;28;20032;-60
2023/12/01 07:41:31;;;;;;;10.40;5.22;;;3.30;80.20;;;;;;5050966;28;20127;-62
2023/12/01 07:43:57;;;;;;;9.25;5.35;;;3.30;80.20;;;;;;5054722;28;20175;-61
2023/12/01 07:46:23;;;;;;;13.90;5.88;;;3.30;80.10;;;;;;5054679;28;20107;-61
2023/12/01 07:48:49;;;;;;;10.40;5.53;;;3.20;79.80;;;;;;5052257;28;20060;-61
2023/12/01 07:51:16;;;;;;;9.52;5.13;;;3.20;79.80;;;;;;5050563;28;20067;-61
2023/12/01 07:53:44;;;;;;;16.98;6.40;;;3.20;79.90;;;;;;5048429;28;20328;-61
2023/12/01 07:56:11;;;;;;;11.25;5.68;;;3.10;79.60;;;;;;5053014;28;20027;-61
2023/12/01 07:58:36;;;;;;;8.25;4.78;;;3.10;79.50;;;;;;5054186;28;20049;-60
2023/12/01 08:01:03;;;;;;;11.98;5.85;;;3.10;79.60;;;;;;5035412;28;20114;-60
2023/12/01 08:03:29;;;;;;;14.18;6.80;;;3.10;79.50;;;;;;5045617;28;20043;-61
2023/12/01 08:05:54;;;;;;;13.00;5.63;;;3.10;79.40;;;;;;5054523;28;20028;-61
2023/12/01 08:08:20;;;;;;;15.48;6.15;;;3.10;79.20;;;;;;5056074;28;20029;-60
2023/12/01 08:10:46;;;;;;;11.38;5.63;;;3.10;79.20;;;;;;5062407;28;20029;-60
2023/12/01 08:13:11;;;;;;;7.95;4.55;;;3.10;79.20;;;;;;5059998;28;20079;-61
2023/12/01 08:15:37;;;;;;;12.43;5.88;;;3.10;79.20;;;;;;5062043;28;20086;-61
2023/12/01 08:18:04;;;;;;;11.15;6.25;;;3.20;79.10;;;;;;5066254;28;20036;-61
2023/12/01 08:20:30;;;;;;;11.07;5.85;;;3.20;78.90;;;;;;5061394;28;20116;-61
2023/12/01 08:22:57;;;;;;;7.60;4.15;;;3.10;78.30;;;;;;5059914;28;20136;-61
2023/12/01 08:25:23;;;;;;;12.32;4.75;;;3.00;78.00;;;;;;5067199;28;20032;-61
2023/12/01 08:27:48;;;;;;;9.82;4.28;;;3.00;78.20;;;;;;5054999;28;20369;-61
2023/12/01 08:30:15;;;;;;;10.75;5.00;;;2.90;78.20;;;;;;5055374;28;20071;-60
2023/12/01 08:32:42;;;;;;;6.85;4.72;;;2.90;78.20;;;;;;5052841;28;20039;-61
2023/12/01 08:35:08;;;;;;;7.78;5.03;;;3.00;78.30;;;;;;5053360;28;20506;-60
2023/12/01 08:37:34;;;;;;;14.73;5.90;;;2.90;78.20;;;;;;5063085;28;20414;-61
2023/12/01 08:40:00;;;;;;;10.10;5.05;;;2.90;78.20;;;;;;5064294;28;20043;-61
2023/12/01 08:42:26;;;;;;;7.95;3.90;;;2.90;78.20;;;;;;5053566;28;20055;-62
2023/12/01 08:44:52;;;;;;;9.20;5.55;;;3.00;78.20;;;;;;5060256;28;20032;-60
2023/12/01 08:47:20;;;;;;;8.75;5.25;;;3.00;78.20;;;;;;5054033;28;20472;-60
2023/12/01 08:49:46;;;;;;;12.32;5.07;;;3.00;78.10;;;;;;5057222;28;20033;-60
2023/12/01 08:52:12;;;;;;;7.32;4.55;;;3.00;78.10;;;;;;5050138;28;20029;-61
2023/12/01 08:54:37;;;;;;;10.82;4.80;;;3.00;78.00;;;;;;5048447;28;20029;-61
2023/12/01 08:57:03;;;;;;;12.85;4.55;;;3.00;77.80;;;;;;5054589;28;20103;-61
2023/12/01 08:59:29;;;;;;;7.40;4.68;;;3.00;77.70;;;;;;5059232;28;20051;-61
2023/12/01 09:01:54;;;;;;;9.27;4.35;;;3.00;77.80;;;;;;5055687;28;20033;-61
2023/12/01 09:04:21;;;;;;;8.88;5.07;;;3.00;77.80;;;;;;5055844;28;20028;-60
2023/12/01 09:06:46;;;;;;;7.25;3.70;;;3.10;77.60;;;;;;5044444;28;20075;-61
2023/12/01 09:09:12;;;;;;;8.20;4.93;;;3.10;77.50;;;;;;5050794;28;20033;-61
2023/12/01 09:11:38;;;;;;;14.95;7.15;;;3.20;77.50;;;;;;5044355;28;20092;-60
2023/12/01 09:14:03;;;;;;;8.48;4.63;;;3.20;77.40;;;;;;5050438;28;20488;-62
2023/12/01 09:16:29;;;;;;;7.18;4.38;;;3.20;77.30;;;;;;5053642;28;20025;-62
2023/12/01 09:18:55;;;;;;;12.18;6.78;;;3.30;77.40;;;;;;5054878;28;20164;-62
2023/12/01 09:21:22;;;;;;;8.32;4.82;;;3.30;77.30;;;;;;5055212;28;20039;-61
2023/12/01 09:23:49;;;;;;;12.88;5.28;;;3.30;77.20;;;;;;5058894;28;20508;-61
2023/12/01 09:26:20;;;;;;;10.07;5.13;;;3.30;77.10;;;;;;5050287;28;20029;-61
2023/12/01 09:28:49;;;;;;;14.85;5.32;;;3.40;77.10;;;;;;5051936;28;20396;-61
2023/12/01 09:31:14;;;;;;;7.47;4.43;;;3.40;77.20;;;;;;5058678;28;20385;-61
2023/12/01 09:33:40;;;;;;;11.07;5.85;;;3.50;77.20;;;;;;5058799;28;20036;-61
2023/12/01 09:36:06;;;;;;;9.65;4.57;;;3.50;77.20;;;;;;5058698;28;20373;-61
2023/12/01 09:38:32;;;;;;;5.97;4.20;;;3.50;77.30;;;;;;5057243;28;20028;-61
2023/12/01 09:40:58;;;;;;;11.40;5.70;;;3.60;77.30;;;;;;5046054;28;20040;-61
2023/12/01 09:43:24;;;;;;;10.77;4.53;;;3.60;77.40;;;;;;5048166;28;20091;-61
2023/12/01 09:45:53;;;;;;;9.68;5.50;;;3.60;77.40;;;;;;5061829;28;20029;-62
2023/12/01 09:48:19;;;;;;;5.72;4.15;;;3.60;77.20;;;;;;5058184;28;20534;-68
2023/12/01 09:50:46;;;;;;;10.45;4.28;;;3.70;77.10;;;;;;5060179;28;20061;-62
2023/12/01 09:53:12;;;;;;;8.73;4.95;;;3.70;77.00;;;;;;5039660;28;20116;-62
2023/12/01 09:55:38;;;;;;;9.93;4.50;;;3.80;77.00;;;;;;5051794;28;20103;-62
2023/12/01 09:58:04;;;;;;;6.38;4.55;;;3.90;76.80;;;;;;5056830;28;20483;-61
2023/12/01 10:00:30;;;;;;;14.43;5.15;;;3.90;76.60;;;;;;5058650;28;20056;-62
2023/12/01 10:02:55;;;;;;;9.38;4.93;;;3.90;76.50;;;;;;5042477;28;20471;-61
2023/12/01 10:05:21;;;;;;;8.30;4.82;;;3.80;76.40;;;;;;5051901;28;20039;-61
2023/12/01 10:07:50;;;;;;;14.65;5.07;;;3.80;76.50;;;;;;5050247;28;20327;-62
2023/12/01 10:10:26;;;;;;;12.32;5.70;;;3.80;76.50;;;;;;5050890;28;20021;-62
2023/12/01 10:13:11;;;;;;;9.80;4.53;;;3.70;76.50;;;;;;5033802;28;20052;-62
2023/12/01 10:15:38;;;;;;;8.68;5.38;;;3.70;76.50;;;;;;5040568;28;20151;-62
2023/12/01 10:18:16;;;;;;;6.32;3.75;;;3.60;76.60;;;;;;5054914;28;20369;-61
2023/12/01 10:20:58;;;;;;;8.95;4.38;;;3.60;77.10;;;;;;5046410;28;20111;-61
2023/12/01 10:23:24;;;;;;;5.53;3.57;;;3.70;76.60;;;;;;5049568;28;20062;-61
2023/12/01 10:25:51;;;;;;;7.25;4.93;;;3.70;76.70;;;;;;5034230;28;20303;-62
2023/12/01 10:28:18;;;;;;;9.32;5.15;;;3.60;76.60;;;;;;5042782;28;20030;-62
2023/12/01 10:30:57;;;;;;;7.35;4.03;;;3.70;76.50;;;;;;5030954;28;20032;-62
2023/12/01 10:33:28;;;;;;;7.25;4.40;;;3.70;76.50;;;;;;5043687;28;20372;-62
2023/12/01 10:36:05;;;;;;;9.20;4.78;;;3.70;76.50;;;;;;5037373;28;20389;-63
2023/12/01 10:38:33;;;;;;;11.73;4.20;;;3.80;76.40;;;;;;5035935;28;20041;-62
2023/12/01 10:41:00;;;;;;;6.43;4.55;;;3.80;76.40;;;;;;5031420;28;20109;-62
2023/12/01 10:43:27;;;;;;;10.90;5.25;;;3.80;76.40;;;;;;5046884;28;20037;-62
2023/12/01 10:45:55;;;;;;;9.55;5.75;;;3.80;76.20;;;;;;5050218;28;20029;-63
2023/12/01 10:48:22;;;;;;;8.80;5.07;;;3.80;76.80;;;;;;5047034;28;20024;-61
2023/12/01 10:50:49;;;;;;;6.78;4.75;;;3.80;76.20;;;;;;5039594;28;20427;-61
2023/12/01 10:53:15;;;;;;;10.38;4.75;;;3.80;76.00;;;;;;5048384;28;20107;-62
2023/12/01 10:55:48;;;;;;;10.80;5.35;;;3.80;75.80;;;;;;5034344;28;20383;-61
2023/12/01 10:58:25;;;;;;;8.75;3.88;;;3.80;75.80;;;;;;5039882;28;20028;-62
2023/12/01 11:00:53;;;;;;;11.63;4.95;;;3.80;75.90;;;;;;5056427;28;20426;-62
2023/12/01 11:03:25;;;;;;;8.32;4.20;;;3.70;75.80;;;;;;5041503;28;20122;-61
2023/12/01 11:05:59;;;;;;;9.90;4.90;;;3.80;75.90;;;;;;5027529;28;20025;-62
2023/12/01 11:09:04;;;;;;;10.75;4.88;;;3.80;75.80;;;;;;5043144;28;20381;-62
2023/12/01 11:11:55;;;;;;;9.13;5.32;;;3.80;75.60;;;;;;5049202;28;20044;-63
2023/12/01 11:14:24;;;;;;;10.50;4.70;;;3.70;75.50;;;;;;5028288;28;20037;-62
2023/12/01 11:16:50;;;;;;;11.80;5.95;;;3.70;75.50;;;;;;5050133;28;20118;-60
2023/12/01 11:19:18;;;;;;;7.18;5.30;;;3.70;75.50;;;;;;5045513;28;20033;-61
2023/12/01 11:21:44;;;;;;;10.55;4.78;;;3.70;75.30;;;;;;5044490;28;20068;-61
2023/12/01 11:24:31;;;;;;;14.27;5.68;;;3.70;75.40;;;;;;5038854;28;20024;-61
2023/12/01 11:27:07;;;;;;;10.40;5.22;;;3.70;75.30;;;;;;5048083;28;20029;-61
2023/12/01 11:29:36;;;;;;;10.85;5.75;;;3.70;75.50;;;;;;5043017;28;20033;-61
2023/12/01 11:32:03;;;;;;;11.07;5.65;;;3.70;75.50;;;;;;5039079;28;20095;-61
2023/12/01 11:34:30;;;;;;;8.70;4.38;;;3.60;75.50;;;;;;5040166;28;20092;-61
2023/12/01 11:37:05;;;;;;;10.27;5.28;;;3.70;75.60;;;;;;5033900;28;20033;-61
2023/12/01 11:39:31;;;;;;;14.70;5.05;;;3.70;75.60;;;;;;5038077;28;20060;-61
2023/12/01 11:42:02;;;;;;;7.47;5.18;;;3.70;75.60;;;;;;5043429;28;20104;-60
2023/12/01 11:44:35;;;;;;;11.20;5.57;;;3.70;75.50;;;;;;5044217;28;20028;-60
2023/12/01 11:47:04;;;;;;;10.90;5.85;;;3.70;75.60;;;;;;5031260;28;20059;-60
2023/12/01 11:49:36;;;;;;;8.77;4.88;;;3.60;75.60;;;;;;5041824;28;20036;-61
2023/12/01 11:52:04;;;;;;;11.85;5.80;;;3.60;75.80;;;;;;5046457;28;20404;-60
2023/12/01 11:54:35;;;;;;;10.18;5.50;;;3.60;75.80;;;;;;5056343;28;20124;-61
2023/12/01 11:57:02;;;;;;;9.57;4.82;;;3.50;75.70;;;;;;5048845;28;20047;-61
2023/12/01 11:59:28;;;;;;;9.02;4.93;;;3.60;75.80;;;;;;5040647;28;20025;-61
2023/12/01 12:01:56;;;;;;;13.65;5.30;;;3.60;75.80;;;;;;5043915;28;20033;-60
2023/12/01 12:04:22;;;;;;;11.07;5.20;;;3.60;75.80;;;;;;5049105;28;20085;-61
2023/12/01 12:06:49;;;;;;;8.77;4.03;;;3.60;75.80;;;;;;5045605;28;20021;-62
2023/12/01 12:09:18;;;;;;;11.02;6.25;;;3.60;75.80;;;;;;5039110;28;20520;-62
2023/12/01 12:11:45;;;;;;;8.70;5.70;;;3.60;75.80;;;;;;5042563;28;20093;-62
2023/12/01 12:14:12;;;;;;;9.40;4.82;;;3.50;75.70;;;;;;5046585;28;20035;-62
2023/12/01 12:16:38;;;;;;;9.13;5.32;;;3.60;75.80;;;;;;5033693;28;20055;-62
2023/12/01 12:19:04;;;;;;;8.13;4.20;;;3.50;75.70;;;;;;5052208;28;20110;-62
2023/12/01 12:21:32;;;;;;;8.65;5.18;;;3.50;75.80;;;;;;5054997;28;21844;-62
2023/12/01 12:23:59;;;;;;;8.65;4.40;;;3.50;75.90;;;;;;5052983;28;20036;-62
2023/12/01 12:26:28;;;;;;;8.48;4.88;;;3.50;75.90;;;;;;5046449;28;20028;-61
2023/12/01 12:29:02;;;;;;;10.35;5.80;;;3.40;75.80;;;;;;5042171;28;20023;-61
2023/12/01 12:31:35;;;;;;;8.73;6.07;;;3.50;75.90;;;;;;5027271;28;20083;-61
2023/12/01 12:34:03;;;;;;;10.88;6.05;;;3.50;75.90;;;;;;5054114;28;20019;-61
2023/12/01 12:36:32;;;;;;;11.10;5.32;;;3.40;75.70;;;;;;5057657;28;20029;-61
2023/12/01 12:39:04;;;;;;;18.38;5.97;;;3.40;75.80;;;;;;5056074;28;20399;-61
2023/12/01 12:41:32;;;;;;;11.48;5.85;;;3.40;75.80;;;;;;5044061;28;20031;-61
2023/12/01 12:44:00;;;;;;;9.55;5.60;;;3.40;75.90;;;;;;5048088;28;20025;-62
2023/12/01 12:46:27;;;;;;;9.43;5.18;;;3.40;75.90;;;;;;5060926;28;20033;-61
2023/12/01 12:49:11;;;;;;;12.15;5.78;;;3.40;76.00;;;;;;5041930;28;20026;-61
2023/12/01 12:51:38;;;;;;;11.25;5.00;;;3.40;75.70;;;;;;5051163;28;20859;-61
2023/12/01 12:54:06;;;;;;;11.00;5.93;;;3.40;75.90;;;;;;5057080;28;20039;-61
2023/12/01 12:56:33;;;;;;;11.27;5.22;;;3.40;76.00;;;;;;5046203;28;20025;-61
2023/12/01 12:58:59;;;;;;;9.13;5.10;;;3.40;75.70;;;;;;5050887;28;20064;-61
2023/12/01 13:01:25;;;;;;;10.50;6.03;;;3.40;75.80;;;;;;5048793;28;20017;-61
2023/12/01 13:03:52;;;;;;;11.15;5.88;;;3.40;75.70;;;;;;5049713;28;20028;-61
2023/12/01 13:06:18;;;;;;;11.25;4.97;;;3.50;75.80;;;;;;5051609;28;20057;-61
2023/12/01 13:08:44;;;;;;;11.68;6.00;;;3.50;75.80;;;;;;5043709;28;20025;-61
2023/12/01 13:11:11;;;;;;;10.57;5.32;;;3.50;75.80;;;;;;5049471;28;20036;-62
2023/12/01 13:13:39;;;;;;;11.88;5.63;;;3.50;75.70;;;;;;5056163;28;20036;-62